sensor_id;sensor_type;location;lat;lon;timestamp;temperature;humidity
10294;DHT22;5192;50.328;7.610;2022-07-29T18:40:26;24.40;1.00
10294;DHT22;5192;50.328;7.610;2022-07-29T18:42:56;24.30;1.00
10294;DHT22;5192;50.328;7.610;2022-07-29T18:45:41;24.30;1.00
10294;DHT22;5192;50.328;7.610;2022-07-29T18:48:15;24.20;1.00
10294;DHT22;5192;50.328;7.610;2022-07-29T18:50:44;24.20;1.00
10294;DHT22;5192;50.328;7.610;2022-07-29T18:53:14;24.10;1.00
10294;DHT22;5192;50.328;7.610;2022-07-29T18:55:41;24.10;1.00
10294;DHT22;5192;50.328;7.610;2022-07-29T18:58:26;24.10;1.00
10294;DHT22;5192;50.328;7.610;2022-07-29T19:00:53;24.10;1.00
10294;DHT22;5192;50.328;7.610;2022-07-29T19:03:20;24.00;1.00
10294;DHT22;5192;50.328;7.610;2022-07-29T19:06:01;23.90;1.00
10294;DHT22;5192;50.328;7.610;2022-07-29T19:08:34;23.90;1.00
10294;DHT22;5192;50.328;7.610;2022-07-29T19:11:03;23.80;1.00
10294;DHT22;5192;50.328;7.610;2022-07-29T19:13:35;23.80;1.00
10294;DHT22;5192;50.328;7.610;2022-07-29T19:16:04;23.70;1.00
10294;DHT22;5192;50.328;7.610;2022-07-29T19:18:31;23.60;1.00
10294;DHT22;5192;50.328;7.610;2022-07-29T19:21:01;23.60;1.00
10294;DHT22;5192;50.328;7.610;2022-07-29T19:23:30;23.60;1.00
10294;DHT22;5192;50.328;7.610;2022-07-29T19:26:03;23.50;1.00
10294;DHT22;5192;50.328;7.610;2022-07-29T19:28:30;23.50;1.00
10294;DHT22;5192;50.328;7.610;2022-07-29T19:30:58;23.40;1.00
10294;DHT22;5192;50.328;7.610;2022-07-29T19:33:29;23.30;1.00
10294;DHT22;5192;50.328;7.610;2022-07-29T19:35:56;23.30;1.00
10294;DHT22;5192;50.328;7.610;2022-07-29T19:38:26;23.30;1.00
10294;DHT22;5192;50.328;7.610;2022-07-29T19:40:53;23.20;1.00
10294;DHT22;5192;50.328;7.610;2022-07-29T19:43:21;23.20;1.00
10294;DHT22;5192;50.328;7.610;2022-07-29T19:45:52;23.10;1.00
10294;DHT22;5192;50.328;7.610;2022-07-29T19:48:19;23.10;1.00
10294;DHT22;5192;50.328;7.610;2022-07-29T19:50:45;23.10;1.00
10294;DHT22;5192;50.328;7.610;2022-07-29T19:53:12;23.10;1.00
10294;DHT22;5192;50.328;7.610;2022-07-29T19:55:41;23.10;1.00
10294;DHT22;5192;50.328;7.610;2022-07-29T19:58:15;23.00;1.00
10294;DHT22;5192;50.328;7.610;2022-07-29T20:00:42;22.90;1.00
10294;DHT22;5192;50.328;7.610;2022-07-29T20:03:14;22.90;1.00
10294;DHT22;5192;50.328;7.610;2022-07-29T20:05:43;22.90;1.00
10294;DHT22;5192;50.328;7.610;2022-07-29T20:08:15;22.80;1.00
10294;DHT22;5192;50.328;7.610;2022-07-29T20:10:42;22.80;1.00
10294;DHT22;5192;50.328;7.610;2022-07-29T20:13:09;22.80;1.00
10294;DHT22;5192;50.328;7.610;2022-07-29T20:15:43;22.80;1.00
10294;DHT22;5192;50.328;7.610;2022-07-29T20:18:13;22.70;1.00
10294;DHT22;5192;50.328;7.610;2022-07-29T20:20:42;22.70;1.00
10294;DHT22;5192;50.328;7.610;2022-07-29T20:23:11;22.60;1.00
10294;DHT22;5192;50.328;7.610;2022-07-29T20:25:39;22.60;1.00
10294;DHT22;5192;50.328;7.610;2022-07-29T20:28:21;22.60;1.00
10294;DHT22;5192;50.328;7.610;2022-07-29T20:30:49;22.60;1.00
10294;DHT22;5192;50.328;7.610;2022-07-29T20:33:16;22.60;1.00
10294;DHT22;5192;50.328;7.610;2022-07-29T20:35:43;22.60;1.00
10294;DHT22;5192;50.328;7.610;2022-07-29T20:38:10;22.50;1.00
10294;DHT22;5192;50.328;7.610;2022-07-29T20:40:38;22.50;1.00
10294;DHT22;5192;50.328;7.610;2022-07-29T20:43:05;22.50;1.00
10294;DHT22;5192;50.328;7.610;2022-07-29T20:45:37;22.50;1.00
10294;DHT22;5192;50.328;7.610;2022-07-29T20:48:06;22.50;1.00
10294;DHT22;5192;50.328;7.610;2022-07-29T20:50:34;22.40;1.00
10294;DHT22;5192;50.328;7.610;2022-07-29T20:53:00;22.40;1.00
10294;DHT22;5192;50.328;7.610;2022-07-29T20:55:35;22.30;1.00
10294;DHT22;5192;50.328;7.610;2022-07-29T20:58:05;22.30;1.00
10294;DHT22;5192;50.328;7.610;2022-07-29T21:00:33;22.30;1.00
10294;DHT22;5192;50.328;7.610;2022-07-29T21:03:01;22.20;1.00
10294;DHT22;5192;50.328;7.610;2022-07-29T21:05:28;22.10;1.00
10294;DHT22;5192;50.328;7.610;2022-07-29T21:07:57;22.00;1.00
10294;DHT22;5192;50.328;7.610;2022-07-29T21:10:25;22.00;1.00
10294;DHT22;5192;50.328;7.610;2022-07-29T21:12:54;22.00;1.00
10294;DHT22;5192;50.328;7.610;2022-07-29T21:15:21;21.90;1.00
10294;DHT22;5192;50.328;7.610;2022-07-29T21:17:49;21.90;1.00
10294;DHT22;5192;50.328;7.610;2022-07-29T21:20:18;21.80;1.00
10294;DHT22;5192;50.328;7.610;2022-07-29T21:22:45;21.70;1.00
10294;DHT22;5192;50.328;7.610;2022-07-29T21:25:12;21.70;1.00
10294;DHT22;5192;50.328;7.610;2022-07-29T21:27:42;21.60;1.00
10294;DHT22;5192;50.328;7.610;2022-07-29T21:30:28;21.60;1.00
10294;DHT22;5192;50.328;7.610;2022-07-29T21:32:56;21.50;1.00
10294;DHT22;5192;50.328;7.610;2022-07-29T21:35:23;21.40;1.00
10294;DHT22;5192;50.328;7.610;2022-07-29T21:37:50;21.40;1.00
10294;DHT22;5192;50.328;7.610;2022-07-29T21:40:17;21.30;1.00
10294;DHT22;5192;50.328;7.610;2022-07-29T21:42:46;21.30;1.00
10294;DHT22;5192;50.328;7.610;2022-07-29T21:45:13;21.20;1.00
10294;DHT22;5192;50.328;7.610;2022-07-29T21:47:40;21.10;1.00
10294;DHT22;5192;50.328;7.610;2022-07-29T21:50:10;21.10;1.00
10294;DHT22;5192;50.328;7.610;2022-07-29T21:52:39;21.00;1.00
10294;DHT22;5192;50.328;7.610;2022-07-29T21:55:07;21.00;1.00
10294;DHT22;5192;50.328;7.610;2022-07-29T21:57:55;20.80;1.00
10294;DHT22;5192;50.328;7.610;2022-07-29T22:00:23;20.70;1.00
10294;DHT22;5192;50.328;7.610;2022-07-29T22:03:03;20.70;1.00
10294;DHT22;5192;50.328;7.610;2022-07-29T22:05:32;20.60;1.00
10294;DHT22;5192;50.328;7.610;2022-07-29T22:08:01;20.50;1.00
10294;DHT22;5192;50.328;7.610;2022-07-29T22:10:29;20.40;1.00
10294;DHT22;5192;50.328;7.610;2022-07-29T22:12:58;20.30;1.00
10294;DHT22;5192;50.328;7.610;2022-07-29T22:15:26;20.20;1.00
10294;DHT22;5192;50.328;7.610;2022-07-29T22:17:57;20.10;1.00
10294;DHT22;5192;50.328;7.610;2022-07-29T22:20:26;20.00;1.00
10294;DHT22;5192;50.328;7.610;2022-07-29T22:22:52;19.90;1.00
10294;DHT22;5192;50.328;7.610;2022-07-29T22:25:18;19.90;1.00
10294;DHT22;5192;50.328;7.610;2022-07-29T22:27:44;19.80;1.00
10294;DHT22;5192;50.328;7.610;2022-07-29T22:30:10;19.60;1.00
10294;DHT22;5192;50.328;7.610;2022-07-29T22:32:45;19.60;1.00
10294;DHT22;5192;50.328;7.610;2022-07-29T22:35:13;19.60;1.00
10294;DHT22;5192;50.328;7.610;2022-07-29T22:37:40;19.50;1.00
10294;DHT22;5192;50.328;7.610;2022-07-29T22:40:21;19.40;1.00
10294;DHT22;5192;50.328;7.610;2022-07-29T22:42:50;19.40;1.00
10294;DHT22;5192;50.328;7.610;2022-07-29T22:45:18;19.30;1.00
10294;DHT22;5192;50.328;7.610;2022-07-29T22:47:45;19.30;1.00
10294;DHT22;5192;50.328;7.610;2022-07-29T22:50:12;19.30;1.00
10294;DHT22;5192;50.328;7.610;2022-07-29T22:52:40;19.30;1.00
10294;DHT22;5192;50.328;7.610;2022-07-29T22:55:06;19.20;1.00
10294;DHT22;5192;50.328;7.610;2022-07-29T22:57:34;19.30;1.00
10294;DHT22;5192;50.328;7.610;2022-07-29T23:00:03;19.30;1.00
10294;DHT22;5192;50.328;7.610;2022-07-29T23:02:30;19.20;1.00
10294;DHT22;5192;50.328;7.610;2022-07-29T23:04:56;19.20;1.00
10294;DHT22;5192;50.328;7.610;2022-07-29T23:07:23;19.20;1.00
10294;DHT22;5192;50.328;7.610;2022-07-29T23:09:49;19.30;1.00
10294;DHT22;5192;50.328;7.610;2022-07-29T23:12:17;19.40;1.00
10294;DHT22;5192;50.328;7.610;2022-07-29T23:14:43;19.40;1.00
10294;DHT22;5192;50.328;7.610;2022-07-29T23:17:11;19.40;1.00
10294;DHT22;5192;50.328;7.610;2022-07-29T23:19:38;19.40;1.00
10294;DHT22;5192;50.328;7.610;2022-07-29T23:22:05;19.40;1.00
10294;DHT22;5192;50.328;7.610;2022-07-29T23:24:32;19.40;1.00
10294;DHT22;5192;50.328;7.610;2022-07-29T23:27:00;19.40;1.00
10294;DHT22;5192;50.328;7.610;2022-07-29T23:29:27;19.50;1.00
10294;DHT22;5192;50.328;7.610;2022-07-29T23:31:52;19.50;1.00
10294;DHT22;5192;50.328;7.610;2022-07-29T23:34:21;19.40;1.00
10294;DHT22;5192;50.328;7.610;2022-07-29T23:37:03;19.40;1.00
10294;DHT22;5192;50.328;7.610;2022-07-29T23:39:32;19.40;1.00
10294;DHT22;5192;50.328;7.610;2022-07-29T23:42:01;19.30;1.00
10294;DHT22;5192;50.328;7.610;2022-07-29T23:44:30;19.30;1.00
10294;DHT22;5192;50.328;7.610;2022-07-29T23:46:59;19.20;1.00
10294;DHT22;5192;50.328;7.610;2022-07-29T23:49:26;19.20;1.00
10294;DHT22;5192;50.328;7.610;2022-07-29T23:51:52;19.10;2.90
10294;DHT22;5192;50.328;7.610;2022-07-29T23:54:20;19.00;6.10
10294;DHT22;5192;50.328;7.610;2022-07-29T23:56:48;18.90;7.20
10294;DHT22;5192;50.328;7.610;2022-07-29T23:59:15;18.80;10.80
